sensor_id;sensor_type;location;lat;lon;timestamp;P1;durP1;ratioP1;P2;durP2;ratioP2
72864;SDS011;61000;48.120;11.548;2022-11-20T00:01:26;3.00;;;2.70;;
72864;SDS011;61000;48.120;11.548;2022-11-20T00:03:54;4.22;;;3.33;;
72864;SDS011;61000;48.120;11.548;2022-11-20T00:06:22;4.85;;;3.50;;
72864;SDS011;61000;48.120;11.548;2022-11-20T00:08:50;3.38;;;3.03;;
72864;SDS011;61000;48.120;11.548;2022-11-20T00:11:20;5.97;;;3.40;;
72864;SDS011;61000;48.120;11.548;2022-11-20T00:13:49;3.95;;;3.53;;
72864;SDS011;61000;48.120;11.548;2022-11-20T00:16:18;4.45;;;3.45;;
72864;SDS011;61000;48.120;11.548;2022-11-20T00:18:51;5.60;;;4.05;;
72864;SDS011;61000;48.120;11.548;2022-11-20T00:21:18;5.20;;;4.35;;
72864;SDS011;61000;48.120;11.548;2022-11-20T00:23:47;5.90;;;3.10;;
72864;SDS011;61000;48.120;11.548;2022-11-20T00:26:15;5.65;;;3.10;;
72864;SDS011;61000;48.120;11.548;2022-11-20T00:28:44;5.72;;;3.50;;
72864;SDS011;61000;48.120;11.548;2022-11-20T00:31:15;7.32;;;3.50;;
72864;SDS011;61000;48.120;11.548;2022-11-20T00:33:43;4.03;;;3.40;;
72864;SDS011;61000;48.120;11.548;2022-11-20T00:36:12;5.80;;;3.47;;
72864;SDS011;61000;48.120;11.548;2022-11-20T00:38:40;4.18;;;3.20;;
72864;SDS011;61000;48.120;11.548;2022-11-20T00:41:08;4.38;;;3.35;;
72864;SDS011;61000;48.120;11.548;2022-11-20T00:43:36;4.90;;;3.20;;
72864;SDS011;61000;48.120;11.548;2022-11-20T00:46:04;3.65;;;3.30;;
72864;SDS011;61000;48.120;11.548;2022-11-20T00:48:32;3.60;;;3.05;;
72864;SDS011;61000;48.120;11.548;2022-11-20T00:50:59;5.15;;;4.05;;
72864;SDS011;61000;48.120;11.548;2022-11-20T00:53:28;4.53;;;2.97;;
72864;SDS011;61000;48.120;11.548;2022-11-20T00:55:55;5.30;;;3.53;;
72864;SDS011;61000;48.120;11.548;2022-11-20T00:58:23;4.45;;;3.17;;
72864;SDS011;61000;48.120;11.548;2022-11-20T01:00:50;3.92;;;3.30;;
72864;SDS011;61000;48.120;11.548;2022-11-20T01:03:18;3.65;;;3.13;;
72864;SDS011;61000;48.120;11.548;2022-11-20T01:05:45;3.30;;;3.00;;
72864;SDS011;61000;48.120;11.548;2022-11-20T01:08:12;4.35;;;3.00;;
72864;SDS011;61000;48.120;11.548;2022-11-20T01:10:40;3.50;;;3.20;;
72864;SDS011;61000;48.120;11.548;2022-11-20T01:13:07;5.13;;;3.50;;
72864;SDS011;61000;48.120;11.548;2022-11-20T01:15:51;3.67;;;3.20;;
72864;SDS011;61000;48.120;11.548;2022-11-20T01:18:18;4.30;;;3.17;;
72864;SDS011;61000;48.120;11.548;2022-11-20T01:20:45;4.50;;;3.20;;
72864;SDS011;61000;48.120;11.548;2022-11-20T01:23:12;3.45;;;3.08;;
72864;SDS011;61000;48.120;11.548;2022-11-20T01:25:40;3.47;;;3.10;;
72864;SDS011;61000;48.120;11.548;2022-11-20T01:28:07;3.60;;;3.30;;
72864;SDS011;61000;48.120;11.548;2022-11-20T01:30:34;4.80;;;3.20;;
72864;SDS011;61000;48.120;11.548;2022-11-20T01:33:01;3.58;;;3.25;;
72864;SDS011;61000;48.120;11.548;2022-11-20T01:35:28;5.72;;;3.28;;
72864;SDS011;61000;48.120;11.548;2022-11-20T01:37:55;3.50;;;3.20;;
72864;SDS011;61000;48.120;11.548;2022-11-20T01:40:21;3.92;;;3.20;;
72864;SDS011;61000;48.120;11.548;2022-11-20T01:42:52;3.45;;;2.95;;
72864;SDS011;61000;48.120;11.548;2022-11-20T01:45:51;3.88;;;3.47;;
72864;SDS011;61000;48.120;11.548;2022-11-20T01:48:25;3.70;;;3.22;;
72864;SDS011;61000;48.120;11.548;2022-11-20T01:50:56;4.78;;;3.05;;
72864;SDS011;61000;48.120;11.548;2022-11-20T01:53:25;4.38;;;2.88;;
72864;SDS011;61000;48.120;11.548;2022-11-20T01:55:57;4.13;;;2.92;;
72864;SDS011;61000;48.120;11.548;2022-11-20T01:58:30;3.00;;;2.78;;
72864;SDS011;61000;48.120;11.548;2022-11-20T02:00:59;4.18;;;3.22;;
72864;SDS011;61000;48.120;11.548;2022-11-20T02:03:26;3.40;;;3.10;;
72864;SDS011;61000;48.120;11.548;2022-11-20T02:05:55;3.35;;;3.05;;
72864;SDS011;61000;48.120;11.548;2022-11-20T02:08:28;4.13;;;3.20;;
72864;SDS011;61000;48.120;11.548;2022-11-20T02:10:56;3.45;;;3.00;;
72864;SDS011;61000;48.120;11.548;2022-11-20T02:13:23;7.85;;;4.70;;
72864;SDS011;61000;48.120;11.548;2022-11-20T02:16:10;3.30;;;3.00;;
72864;SDS011;61000;48.120;11.548;2022-11-20T02:18:42;4.00;;;3.10;;
72864;SDS011;61000;48.120;11.548;2022-11-20T02:21:12;3.65;;;2.83;;
72864;SDS011;61000;48.120;11.548;2022-11-20T02:24:01;3.58;;;3.28;;
72864;SDS011;61000;48.120;11.548;2022-11-20T02:26:31;6.75;;;3.90;;
72864;SDS011;61000;48.120;11.548;2022-11-20T02:29:00;3.30;;;2.92;;
72864;SDS011;61000;48.120;11.548;2022-11-20T02:31:28;4.03;;;2.95;;
72864;SDS011;61000;48.120;11.548;2022-11-20T02:33:55;3.47;;;3.13;;
72864;SDS011;61000;48.120;11.548;2022-11-20T02:36:22;3.25;;;2.95;;
72864;SDS011;61000;48.120;11.548;2022-11-20T02:38:50;4.07;;;3.10;;
72864;SDS011;61000;48.120;11.548;2022-11-20T02:41:18;3.33;;;3.03;;
72864;SDS011;61000;48.120;11.548;2022-11-20T02:43:45;2.97;;;2.75;;
72864;SDS011;61000;48.120;11.548;2022-11-20T02:46:12;3.47;;;3.17;;
72864;SDS011;61000;48.120;11.548;2022-11-20T02:48:39;3.50;;;2.90;;
72864;SDS011;61000;48.120;11.548;2022-11-20T02:51:06;4.65;;;3.20;;
72864;SDS011;61000;48.120;11.548;2022-11-20T02:53:33;3.47;;;3.17;;
72864;SDS011;61000;48.120;11.548;2022-11-20T02:56:00;4.20;;;3.47;;
72864;SDS011;61000;48.120;11.548;2022-11-20T02:58:28;4.50;;;3.67;;
72864;SDS011;61000;48.120;11.548;2022-11-20T03:00:55;4.13;;;3.25;;
72864;SDS011;61000;48.120;11.548;2022-11-20T03:03:22;4.13;;;3.50;;
72864;SDS011;61000;48.120;11.548;2022-11-20T03:05:49;5.28;;;2.90;;
72864;SDS011;61000;48.120;11.548;2022-11-20T03:08:16;3.50;;;3.10;;
72864;SDS011;61000;48.120;11.548;2022-11-20T03:10:43;4.15;;;3.75;;
72864;SDS011;61000;48.120;11.548;2022-11-20T03:13:09;4.47;;;3.63;;
72864;SDS011;61000;48.120;11.548;2022-11-20T03:15:38;3.50;;;3.20;;
72864;SDS011;61000;48.120;11.548;2022-11-20T03:18:04;4.53;;;3.67;;
72864;SDS011;61000;48.120;11.548;2022-11-20T03:20:32;3.40;;;3.10;;
72864;SDS011;61000;48.120;11.548;2022-11-20T03:22:59;3.60;;;3.30;;
72864;SDS011;61000;48.120;11.548;2022-11-20T03:25:27;4.63;;;3.42;;
72864;SDS011;61000;48.120;11.548;2022-11-20T03:27:54;5.38;;;3.75;;
72864;SDS011;61000;48.120;11.548;2022-11-20T03:30:21;5.95;;;4.18;;
72864;SDS011;61000;48.120;11.548;2022-11-20T03:32:52;3.53;;;3.03;;
72864;SDS011;61000;48.120;11.548;2022-11-20T03:35:19;3.90;;;3.40;;
72864;SDS011;61000;48.120;11.548;2022-11-20T03:37:46;5.25;;;3.47;;
72864;SDS011;61000;48.120;11.548;2022-11-20T03:40:13;4.78;;;3.55;;
72864;SDS011;61000;48.120;11.548;2022-11-20T03:42:40;4.82;;;3.58;;
72864;SDS011;61000;48.120;11.548;2022-11-20T03:45:13;3.75;;;3.38;;
72864;SDS011;61000;48.120;11.548;2022-11-20T03:47:42;4.60;;;3.83;;
72864;SDS011;61000;48.120;11.548;2022-11-20T03:50:12;3.85;;;3.45;;
72864;SDS011;61000;48.120;11.548;2022-11-20T03:52:39;3.80;;;3.40;;
72864;SDS011;61000;48.120;11.548;2022-11-20T03:55:07;3.83;;;3.10;;
72864;SDS011;61000;48.120;11.548;2022-11-20T03:57:34;5.20;;;3.30;;
72864;SDS011;61000;48.120;11.548;2022-11-20T04:00:02;5.30;;;3.55;;
72864;SDS011;61000;48.120;11.548;2022-11-20T04:02:30;3.95;;;3.55;;
72864;SDS011;61000;48.120;11.548;2022-11-20T04:04:57;4.57;;;3.50;;
72864;SDS011;61000;48.120;11.548;2022-11-20T04:07:25;4.47;;;3.58;;
72864;SDS011;61000;48.120;11.548;2022-11-20T04:09:52;4.28;;;3.40;;
72864;SDS011;61000;48.120;11.548;2022-11-20T04:12:19;6.88;;;3.38;;
72864;SDS011;61000;48.120;11.548;2022-11-20T04:14:46;4.90;;;3.28;;
72864;SDS011;61000;48.120;11.548;2022-11-20T04:17:12;3.80;;;3.40;;
72864;SDS011;61000;48.120;11.548;2022-11-20T04:19:39;3.70;;;3.22;;
72864;SDS011;61000;48.120;11.548;2022-11-20T04:22:06;3.67;;;3.38;;
72864;SDS011;61000;48.120;11.548;2022-11-20T04:24:35;5.90;;;3.58;;
72864;SDS011;61000;48.120;11.548;2022-11-20T04:27:01;3.58;;;3.28;;
72864;SDS011;61000;48.120;11.548;2022-11-20T04:29:28;3.75;;;3.38;;
72864;SDS011;61000;48.120;11.548;2022-11-20T04:31:55;3.70;;;3.22;;
72864;SDS011;61000;48.120;11.548;2022-11-20T04:34:22;3.60;;;3.30;;
72864;SDS011;61000;48.120;11.548;2022-11-20T04:36:49;3.88;;;3.58;;
72864;SDS011;61000;48.120;11.548;2022-11-20T04:39:16;3.20;;;2.90;;
72864;SDS011;61000;48.120;11.548;2022-11-20T04:41:44;3.60;;;3.05;;
72864;SDS011;61000;48.120;11.548;2022-11-20T04:44:11;3.17;;;2.85;;
72864;SDS011;61000;48.120;11.548;2022-11-20T04:46:38;4.45;;;3.40;;
72864;SDS011;61000;48.120;11.548;2022-11-20T04:49:06;4.45;;;3.22;;
72864;SDS011;61000;48.120;11.548;2022-11-20T04:51:34;4.97;;;3.33;;
72864;SDS011;61000;48.120;11.548;2022-11-20T04:54:01;4.03;;;3.58;;
72864;SDS011;61000;48.120;11.548;2022-11-20T04:56:28;3.83;;;3.42;;
72864;SDS011;61000;48.120;11.548;2022-11-20T04:58:59;4.68;;;3.75;;
72864;SDS011;61000;48.120;11.548;2022-11-20T05:01:26;3.97;;;3.55;;
72864;SDS011;61000;48.120;11.548;2022-11-20T05:03:53;6.20;;;4.30;;
72864;SDS011;61000;48.120;11.548;2022-11-20T05:06:20;5.47;;;3.78;;
72864;SDS011;61000;48.120;11.548;2022-11-20T05:08:48;4.55;;;3.88;;
72864;SDS011;61000;48.120;11.548;2022-11-20T05:11:16;4.90;;;4.00;;
72864;SDS011;61000;48.120;11.548;2022-11-20T05:13:44;3.50;;;3.15;;
72864;SDS011;61000;48.120;11.548;2022-11-20T05:16:12;3.85;;;3.50;;
72864;SDS011;61000;48.120;11.548;2022-11-20T05:18:41;6.00;;;3.78;;
72864;SDS011;61000;48.120;11.548;2022-11-20T05:21:08;5.32;;;3.95;;
72864;SDS011;61000;48.120;11.548;2022-11-20T05:23:36;3.97;;;3.58;;
72864;SDS011;61000;48.120;11.548;2022-11-20T05:26:03;6.85;;;4.18;;
72864;SDS011;61000;48.120;11.548;2022-11-20T05:28:32;5.95;;;3.60;;
72864;SDS011;61000;48.120;11.548;2022-11-20T05:31:03;5.38;;;3.95;;
72864;SDS011;61000;48.120;11.548;2022-11-20T05:33:33;4.25;;;3.40;;
72864;SDS011;61000;48.120;11.548;2022-11-20T05:36:00;3.60;;;3.30;;
72864;SDS011;61000;48.120;11.548;2022-11-20T05:38:27;3.72;;;3.42;;
72864;SDS011;61000;48.120;11.548;2022-11-20T05:40:54;4.88;;;4.00;;
72864;SDS011;61000;48.120;11.548;2022-11-20T05:43:21;4.65;;;3.83;;
72864;SDS011;61000;48.120;11.548;2022-11-20T05:45:51;4.65;;;3.97;;
72864;SDS011;61000;48.120;11.548;2022-11-20T05:48:19;5.50;;;3.88;;
72864;SDS011;61000;48.120;11.548;2022-11-20T05:50:48;3.95;;;3.55;;
72864;SDS011;61000;48.120;11.548;2022-11-20T05:53:14;4.13;;;3.72;;
72864;SDS011;61000;48.120;11.548;2022-11-20T05:55:41;4.10;;;3.70;;
72864;SDS011;61000;48.120;11.548;2022-11-20T05:58:08;3.92;;;3.53;;
72864;SDS011;61000;48.120;11.548;2022-11-20T06:00:35;5.07;;;3.78;;
72864;SDS011;61000;48.120;11.548;2022-11-20T06:03:02;4.10;;;3.70;;
72864;SDS011;61000;48.120;11.548;2022-11-20T06:05:29;3.80;;;3.50;;
72864;SDS011;61000;48.120;11.548;2022-11-20T06:07:58;4.38;;;3.95;;
72864;SDS011;61000;48.120;11.548;2022-11-20T06:10:26;3.83;;;3.45;;
72864;SDS011;61000;48.120;11.548;2022-11-20T06:12:55;6.43;;;3.50;;
72864;SDS011;61000;48.120;11.548;2022-11-20T06:15:23;3.55;;;3.00;;
72864;SDS011;61000;48.120;11.548;2022-11-20T06:17:51;3.65;;;3.28;;
72864;SDS011;61000;48.120;11.548;2022-11-20T06:20:19;3.20;;;3.00;;
72864;SDS011;61000;48.120;11.548;2022-11-20T06:22:46;3.38;;;2.78;;
72864;SDS011;61000;48.120;11.548;2022-11-20T06:25:14;3.25;;;2.95;;
72864;SDS011;61000;48.120;11.548;2022-11-20T06:27:41;3.63;;;3.28;;
72864;SDS011;61000;48.120;11.548;2022-11-20T06:30:08;3.50;;;2.78;;
72864;SDS011;61000;48.120;11.548;2022-11-20T06:32:36;6.47;;;2.92;;
72864;SDS011;61000;48.120;11.548;2022-11-20T06:35:03;4.35;;;3.25;;
72864;SDS011;61000;48.120;11.548;2022-11-20T06:37:30;3.30;;;2.95;;
72864;SDS011;61000;48.120;11.548;2022-11-20T06:39:57;2.88;;;2.65;;
72864;SDS011;61000;48.120;11.548;2022-11-20T06:42:25;2.88;;;2.67;;
72864;SDS011;61000;48.120;11.548;2022-11-20T06:44:52;3.40;;;2.72;;
72864;SDS011;61000;48.120;11.548;2022-11-20T06:47:19;3.42;;;3.13;;
72864;SDS011;61000;48.120;11.548;2022-11-20T06:49:46;4.05;;;2.67;;
72864;SDS011;61000;48.120;11.548;2022-11-20T06:52:13;5.55;;;3.75;;
72864;SDS011;61000;48.120;11.548;2022-11-20T06:54:40;2.60;;;2.40;;
72864;SDS011;61000;48.120;11.548;2022-11-20T06:57:07;3.17;;;2.88;;
72864;SDS011;61000;48.120;11.548;2022-11-20T06:59:35;3.00;;;2.67;;
72864;SDS011;61000;48.120;11.548;2022-11-20T07:02:02;2.97;;;2.78;;
72864;SDS011;61000;48.120;11.548;2022-11-20T07:04:29;2.60;;;2.33;;
72864;SDS011;61000;48.120;11.548;2022-11-20T07:06:56;2.78;;;2.47;;
72864;SDS011;61000;48.120;11.548;2022-11-20T07:09:22;2.72;;;2.47;;
72864;SDS011;61000;48.120;11.548;2022-11-20T07:11:49;3.75;;;2.60;;
72864;SDS011;61000;48.120;11.548;2022-11-20T07:14:16;3.78;;;2.97;;
72864;SDS011;61000;48.120;11.548;2022-11-20T07:16:44;3.53;;;2.63;;
72864;SDS011;61000;48.120;11.548;2022-11-20T07:19:11;3.25;;;2.72;;
72864;SDS011;61000;48.120;11.548;2022-11-20T07:21:38;4.90;;;2.90;;
72864;SDS011;61000;48.120;11.548;2022-11-20T07:24:05;4.88;;;3.10;;
72864;SDS011;61000;48.120;11.548;2022-11-20T07:26:32;3.45;;;3.15;;
72864;SDS011;61000;48.120;11.548;2022-11-20T07:28:59;4.50;;;3.38;;
72864;SDS011;61000;48.120;11.548;2022-11-20T07:31:26;4.13;;;3.55;;
72864;SDS011;61000;48.120;11.548;2022-11-20T07:33:54;3.50;;;3.20;;
72864;SDS011;61000;48.120;11.548;2022-11-20T07:36:21;3.70;;;3.38;;
72864;SDS011;61000;48.120;11.548;2022-11-20T07:38:48;3.88;;;3.47;;
72864;SDS011;61000;48.120;11.548;2022-11-20T07:41:15;4.05;;;2.97;;
72864;SDS011;61000;48.120;11.548;2022-11-20T07:43:41;3.53;;;3.22;;
72864;SDS011;61000;48.120;11.548;2022-11-20T07:46:08;4.15;;;3.53;;
72864;SDS011;61000;48.120;11.548;2022-11-20T07:48:35;4.57;;;3.53;;
72864;SDS011;61000;48.120;11.548;2022-11-20T07:51:04;5.60;;;3.45;;
72864;SDS011;61000;48.120;11.548;2022-11-20T07:53:31;5.10;;;3.28;;
72864;SDS011;61000;48.120;11.548;2022-11-20T07:55:59;6.40;;;3.30;;
72864;SDS011;61000;48.120;11.548;2022-11-20T07:58:26;4.25;;;3.85;;
72864;SDS011;61000;48.120;11.548;2022-11-20T08:00:54;3.40;;;3.10;;
72864;SDS011;61000;48.120;11.548;2022-11-20T08:03:21;3.90;;;3.50;;
72864;SDS011;61000;48.120;11.548;2022-11-20T08:05:49;5.15;;;3.25;;
72864;SDS011;61000;48.120;11.548;2022-11-20T08:08:17;4.40;;;3.35;;
72864;SDS011;61000;48.120;11.548;2022-11-20T08:10:44;3.25;;;2.95;;
72864;SDS011;61000;48.120;11.548;2022-11-20T08:13:11;3.45;;;2.70;;
72864;SDS011;61000;48.120;11.548;2022-11-20T08:16:01;3.90;;;3.20;;
72864;SDS011;61000;48.120;11.548;2022-11-20T08:18:28;3.15;;;2.88;;
72864;SDS011;61000;48.120;11.548;2022-11-20T08:20:55;3.72;;;3.33;;
72864;SDS011;61000;48.120;11.548;2022-11-20T08:23:23;3.33;;;2.80;;
72864;SDS011;61000;48.120;11.548;2022-11-20T08:25:50;2.90;;;2.70;;
72864;SDS011;61000;48.120;11.548;2022-11-20T08:28:17;3.30;;;3.00;;
72864;SDS011;61000;48.120;11.548;2022-11-20T08:30:44;3.10;;;2.80;;
72864;SDS011;61000;48.120;11.548;2022-11-20T08:33:11;3.03;;;2.78;;
72864;SDS011;61000;48.120;11.548;2022-11-20T08:35:38;3.45;;;2.80;;
72864;SDS011;61000;48.120;11.548;2022-11-20T08:38:06;3.20;;;2.90;;
72864;SDS011;61000;48.120;11.548;2022-11-20T08:40:34;3.88;;;3.53;;
72864;SDS011;61000;48.120;11.548;2022-11-20T08:43:01;3.38;;;3.08;;
72864;SDS011;61000;48.120;11.548;2022-11-20T08:45:28;4.22;;;3.00;;
72864;SDS011;61000;48.120;11.548;2022-11-20T08:47:59;3.22;;;2.92;;
72864;SDS011;61000;48.120;11.548;2022-11-20T08:50:27;3.78;;;2.85;;
72864;SDS011;61000;48.120;11.548;2022-11-20T08:52:54;3.13;;;2.83;;
72864;SDS011;61000;48.120;11.548;2022-11-20T08:55:21;2.97;;;2.55;;
72864;SDS011;61000;48.120;11.548;2022-11-20T08:57:49;3.45;;;2.85;;
72864;SDS011;61000;48.120;11.548;2022-11-20T09:00:16;2.70;;;2.50;;
72864;SDS011;61000;48.120;11.548;2022-11-20T09:02:43;3.40;;;3.10;;
72864;SDS011;61000;48.120;11.548;2022-11-20T09:05:10;3.17;;;2.88;;
72864;SDS011;61000;48.120;11.548;2022-11-20T09:07:37;3.05;;;2.75;;
72864;SDS011;61000;48.120;11.548;2022-11-20T09:10:05;3.03;;;2.45;;
72864;SDS011;61000;48.120;11.548;2022-11-20T09:12:33;2.67;;;2.40;;
72864;SDS011;61000;48.120;11.548;2022-11-20T09:15:01;2.85;;;2.55;;
72864;SDS011;61000;48.120;11.548;2022-11-20T09:17:28;3.28;;;2.40;;
72864;SDS011;61000;48.120;11.548;2022-11-20T09:19:55;3.13;;;2.35;;
72864;SDS011;61000;48.120;11.548;2022-11-20T09:22:22;2.55;;;2.35;;
72864;SDS011;61000;48.120;11.548;2022-11-20T09:24:49;2.70;;;2.50;;
72864;SDS011;61000;48.120;11.548;2022-11-20T09:27:16;2.88;;;2.58;;
72864;SDS011;61000;48.120;11.548;2022-11-20T09:29:46;2.60;;;2.28;;
72864;SDS011;61000;48.120;11.548;2022-11-20T09:32:14;8.88;;;2.40;;
72864;SDS011;61000;48.120;11.548;2022-11-20T09:34:41;2.63;;;2.20;;
72864;SDS011;61000;48.120;11.548;2022-11-20T09:37:08;2.28;;;2.08;;
72864;SDS011;61000;48.120;11.548;2022-11-20T09:39:35;2.90;;;2.60;;
72864;SDS011;61000;48.120;11.548;2022-11-20T09:42:14;2.97;;;2.20;;
72864;SDS011;61000;48.120;11.548;2022-11-20T09:45:10;2.40;;;2.20;;
72864;SDS011;61000;48.120;11.548;2022-11-20T09:47:50;3.13;;;2.00;;
72864;SDS011;61000;48.120;11.548;2022-11-20T09:50:28;2.30;;;2.20;;
72864;SDS011;61000;48.120;11.548;2022-11-20T09:53:06;2.63;;;2.42;;
72864;SDS011;61000;48.120;11.548;2022-11-20T09:55:43;2.13;;;1.95;;
72864;SDS011;61000;48.120;11.548;2022-11-20T09:58:14;2.20;;;1.98;;
72864;SDS011;61000;48.120;11.548;2022-11-20T10:00:45;1.90;;;1.80;;
72864;SDS011;61000;48.120;11.548;2022-11-20T10:03:14;2.13;;;1.92;;
72864;SDS011;61000;48.120;11.548;2022-11-20T10:05:46;3.55;;;2.15;;
72864;SDS011;61000;48.120;11.548;2022-11-20T10:08:16;2.20;;;2.10;;
72864;SDS011;61000;48.120;11.548;2022-11-20T10:10:49;3.28;;;2.25;;
72864;SDS011;61000;48.120;11.548;2022-11-20T10:13:23;2.25;;;2.00;;
72864;SDS011;61000;48.120;11.548;2022-11-20T10:16:06;2.22;;;2.03;;
72864;SDS011;61000;48.120;11.548;2022-11-20T10:18:51;4.18;;;2.25;;
72864;SDS011;61000;48.120;11.548;2022-11-20T10:21:30;4.15;;;2.50;;
72864;SDS011;61000;48.120;11.548;2022-11-20T10:24:17;3.20;;;2.85;;
72864;SDS011;61000;48.120;11.548;2022-11-20T10:27:01;4.60;;;3.70;;
72864;SDS011;61000;48.120;11.548;2022-11-20T10:29:36;3.83;;;2.97;;
72864;SDS011;61000;48.120;11.548;2022-11-20T10:32:07;3.60;;;2.95;;
72864;SDS011;61000;48.120;11.548;2022-11-20T10:34:41;3.78;;;2.22;;
72864;SDS011;61000;48.120;11.548;2022-11-20T10:37:16;4.43;;;2.53;;
72864;SDS011;61000;48.120;11.548;2022-11-20T10:39:49;2.10;;;1.90;;
72864;SDS011;61000;48.120;11.548;2022-11-20T10:42:22;3.63;;;1.63;;
72864;SDS011;61000;48.120;11.548;2022-11-20T10:44:57;2.40;;;2.20;;
72864;SDS011;61000;48.120;11.548;2022-11-20T10:47:35;2.33;;;2.13;;
72864;SDS011;61000;48.120;11.548;2022-11-20T10:50:05;2.80;;;1.88;;
72864;SDS011;61000;48.120;11.548;2022-11-20T10:52:37;2.47;;;2.28;;
72864;SDS011;61000;48.120;11.548;2022-11-20T10:55:17;2.38;;;2.00;;
72864;SDS011;61000;48.120;11.548;2022-11-20T10:57:54;2.10;;;2.00;;
72864;SDS011;61000;48.120;11.548;2022-11-20T11:00:30;2.20;;;2.00;;
72864;SDS011;61000;48.120;11.548;2022-11-20T11:02:57;2.95;;;2.67;;
72864;SDS011;61000;48.120;11.548;2022-11-20T11:05:33;5.18;;;2.33;;
72864;SDS011;61000;48.120;11.548;2022-11-20T11:08:04;3.83;;;1.90;;
72864;SDS011;61000;48.120;11.548;2022-11-20T11:10:39;1.85;;;1.75;;
72864;SDS011;61000;48.120;11.548;2022-11-20T11:13:18;1.95;;;1.75;;
72864;SDS011;61000;48.120;11.548;2022-11-20T11:15:46;1.80;;;1.70;;
72864;SDS011;61000;48.120;11.548;2022-11-20T11:18:22;2.38;;;2.10;;
72864;SDS011;61000;48.120;11.548;2022-11-20T11:20:51;2.53;;;2.30;;
72864;SDS011;61000;48.120;11.548;2022-11-20T11:23:31;5.03;;;2.70;;
72864;SDS011;61000;48.120;11.548;2022-11-20T11:26:00;2.63;;;2.35;;
72864;SDS011;61000;48.120;11.548;2022-11-20T11:28:28;1.90;;;1.80;;
72864;SDS011;61000;48.120;11.548;2022-11-20T11:30:55;1.88;;;1.77;;
72864;SDS011;61000;48.120;11.548;2022-11-20T11:33:23;2.15;;;2.05;;
72864;SDS011;61000;48.120;11.548;2022-11-20T11:35:53;2.20;;;2.00;;
72864;SDS011;61000;48.120;11.548;2022-11-20T11:38:23;4.45;;;2.35;;
72864;SDS011;61000;48.120;11.548;2022-11-20T11:40:55;3.22;;;2.10;;
72864;SDS011;61000;48.120;11.548;2022-11-20T11:43:24;3.17;;;2.10;;
72864;SDS011;61000;48.120;11.548;2022-11-20T11:46:20;2.40;;;2.20;;
72864;SDS011;61000;48.120;11.548;2022-11-20T11:48:55;3.38;;;2.20;;
72864;SDS011;61000;48.120;11.548;2022-11-20T11:51:26;2.10;;;1.90;;
72864;SDS011;61000;48.120;11.548;2022-11-20T11:53:58;5.40;;;2.60;;
72864;SDS011;61000;48.120;11.548;2022-11-20T11:56:26;2.92;;;2.63;;
72864;SDS011;61000;48.120;11.548;2022-11-20T11:58:54;4.15;;;2.50;;
72864;SDS011;61000;48.120;11.548;2022-11-20T12:01:26;2.88;;;2.22;;
72864;SDS011;61000;48.120;11.548;2022-11-20T12:04:00;3.38;;;2.40;;
72864;SDS011;61000;48.120;11.548;2022-11-20T12:06:32;2.40;;;2.20;;
72864;SDS011;61000;48.120;11.548;2022-11-20T12:09:03;3.58;;;2.00;;
72864;SDS011;61000;48.120;11.548;2022-11-20T12:11:34;2.75;;;2.20;;
72864;SDS011;61000;48.120;11.548;2022-11-20T12:14:11;2.22;;;2.13;;
72864;SDS011;61000;48.120;11.548;2022-11-20T12:16:44;4.38;;;2.20;;
72864;SDS011;61000;48.120;11.548;2022-11-20T12:19:12;2.10;;;1.90;;
72864;SDS011;61000;48.120;11.548;2022-11-20T12:21:45;1.88;;;1.77;;
72864;SDS011;61000;48.120;11.548;2022-11-20T12:24:23;2.42;;;1.92;;
72864;SDS011;61000;48.120;11.548;2022-11-20T12:27:23;1.92;;;1.83;;
72864;SDS011;61000;48.120;11.548;2022-11-20T12:30:14;3.45;;;2.50;;
72864;SDS011;61000;48.120;11.548;2022-11-20T12:32:46;3.10;;;2.80;;
72864;SDS011;61000;48.120;11.548;2022-11-20T12:35:37;3.72;;;3.10;;
72864;SDS011;61000;48.120;11.548;2022-11-20T12:38:30;2.65;;;2.45;;
72864;SDS011;61000;48.120;11.548;2022-11-20T12:41:22;4.35;;;2.80;;
72864;SDS011;61000;48.120;11.548;2022-11-20T12:44:24;2.60;;;2.17;;
72864;SDS011;61000;48.120;11.548;2022-11-20T12:47:31;4.93;;;3.58;;
72864;SDS011;61000;48.120;11.548;2022-11-20T12:50:08;4.95;;;3.60;;
72864;SDS011;61000;48.120;11.548;2022-11-20T12:52:44;2.60;;;2.40;;
72864;SDS011;61000;48.120;11.548;2022-11-20T12:55:28;3.55;;;2.13;;
72864;SDS011;61000;48.120;11.548;2022-11-20T12:58:02;2.10;;;2.00;;
72864;SDS011;61000;48.120;11.548;2022-11-20T13:00:36;2.28;;;2.08;;
72864;SDS011;61000;48.120;11.548;2022-11-20T13:03:13;2.05;;;1.95;;
72864;SDS011;61000;48.120;11.548;2022-11-20T13:05:55;2.83;;;2.40;;
72864;SDS011;61000;48.120;11.548;2022-11-20T13:08:31;3.35;;;2.33;;
72864;SDS011;61000;48.120;11.548;2022-11-20T13:11:03;2.28;;;2.08;;
72864;SDS011;61000;48.120;11.548;2022-11-20T13:13:41;2.35;;;2.25;;
72864;SDS011;61000;48.120;11.548;2022-11-20T13:16:16;2.78;;;2.58;;
72864;SDS011;61000;48.120;11.548;2022-11-20T13:18:49;3.15;;;2.70;;
72864;SDS011;61000;48.120;11.548;2022-11-20T13:21:17;2.55;;;2.35;;
72864;SDS011;61000;48.120;11.548;2022-11-20T13:23:46;3.15;;;2.90;;
72864;SDS011;61000;48.120;11.548;2022-11-20T13:26:16;2.40;;;2.20;;
72864;SDS011;61000;48.120;11.548;2022-11-20T13:28:46;3.13;;;2.83;;
72864;SDS011;61000;48.120;11.548;2022-11-20T13:31:30;2.60;;;2.40;;
72864;SDS011;61000;48.120;11.548;2022-11-20T13:34:00;3.60;;;3.08;;
72864;SDS011;61000;48.120;11.548;2022-11-20T13:36:29;3.33;;;3.03;;
72864;SDS011;61000;48.120;11.548;2022-11-20T13:38:57;2.90;;;2.70;;
72864;SDS011;61000;48.120;11.548;2022-11-20T13:41:28;3.15;;;2.85;;
72864;SDS011;61000;48.120;11.548;2022-11-20T13:43:59;3.30;;;2.67;;
72864;SDS011;61000;48.120;11.548;2022-11-20T13:46:36;3.05;;;2.75;;
72864;SDS011;61000;48.120;11.548;2022-11-20T13:49:08;3.42;;;3.05;;
72864;SDS011;61000;48.120;11.548;2022-11-20T13:51:40;2.40;;;2.20;;
72864;SDS011;61000;48.120;11.548;2022-11-20T13:54:35;3.38;;;3.08;;
72864;SDS011;61000;48.120;11.548;2022-11-20T13:57:39;3.38;;;3.00;;
72864;SDS011;61000;48.120;11.548;2022-11-20T14:00:15;3.45;;;2.90;;
72864;SDS011;61000;48.120;11.548;2022-11-20T14:02:43;4.18;;;3.33;;
72864;SDS011;61000;48.120;11.548;2022-11-20T14:05:18;5.93;;;3.25;;
72864;SDS011;61000;48.120;11.548;2022-11-20T14:07:47;4.15;;;3.40;;
72864;SDS011;61000;48.120;11.548;2022-11-20T14:10:20;13.18;;;7.82;;
72864;SDS011;61000;48.120;11.548;2022-11-20T14:12:50;8.93;;;6.53;;
72864;SDS011;61000;48.120;11.548;2022-11-20T14:15:24;5.70;;;3.85;;
72864;SDS011;61000;48.120;11.548;2022-11-20T14:17:52;3.03;;;2.80;;
72864;SDS011;61000;48.120;11.548;2022-11-20T14:20:19;3.90;;;3.50;;
72864;SDS011;61000;48.120;11.548;2022-11-20T14:22:50;2.92;;;2.70;;
72864;SDS011;61000;48.120;11.548;2022-11-20T14:25:18;3.05;;;2.72;;
72864;SDS011;61000;48.120;11.548;2022-11-20T14:27:51;2.60;;;2.40;;
72864;SDS011;61000;48.120;11.548;2022-11-20T14:30:20;2.80;;;2.50;;
72864;SDS011;61000;48.120;11.548;2022-11-20T14:32:49;2.85;;;2.50;;
72864;SDS011;61000;48.120;11.548;2022-11-20T14:35:18;6.93;;;3.33;;
72864;SDS011;61000;48.120;11.548;2022-11-20T14:37:49;9.57;;;4.57;;
72864;SDS011;61000;48.120;11.548;2022-11-20T14:40:27;3.97;;;3.38;;
72864;SDS011;61000;48.120;11.548;2022-11-20T14:42:57;2.63;;;2.40;;
72864;SDS011;61000;48.120;11.548;2022-11-20T14:45:25;3.05;;;2.42;;
72864;SDS011;61000;48.120;11.548;2022-11-20T14:47:53;2.33;;;2.00;;
72864;SDS011;61000;48.120;11.548;2022-11-20T14:50:23;2.80;;;2.22;;
72864;SDS011;61000;48.120;11.548;2022-11-20T14:52:53;2.05;;;1.90;;